Time,TemperatureF,DewpointF,PressureIn,WindDirection,WindDirectionDegrees,WindSpeedMPH,WindSpeedGustMPH,Humidity,HourlyPrecipIn,Conditions,Clouds,dailyrainin,SoftwareType,DateUTC
2013-03-04 00:00:00,20.5,-4.7,30.47,NNE,24,0.0,0.0,32,0.00,,---,0.00,VWS V14.01,2013-03-04 06:00:00,
2013-03-04 00:05:00,20.5,-4.7,30.47,NNE,24,0.0,0.0,32,0.00,,---,0.00,VWS V14.01,2013-03-04 06:05:00,
2013-03-04 00:10:00,20.5,-4.7,30.47,NNE,24,0.0,0.0,32,0.00,,---,0.00,VWS V14.01,2013-03-04 06:10:00,
2013-03-04 00:15:00,20.5,-4.7,30.47,NNE,26,0.0,0.0,32,0.00,,---,0.00,VWS V14.01,2013-03-04 06:15:00,
2013-03-04 00:20:00,20.5,-4.7,30.47,NNE,33,0.0,0.0,32,0.00,,---,0.00,VWS V14.01,2013-03-04 06:20:00,
2013-03-04 00:25:00,20.5,-4.7,30.47,NNE,33,0.0,0.0,32,0.00,,---,0.00,VWS V14.01,2013-03-04 06:25:00,
2013-03-04 00:30:00,20.5,-4.7,30.47,NE,36,0.0,0.0,32,0.00,,---,0.00,VWS V14.01,2013-03-04 06:30:00,
2013-03-04 00:35:00,20.5,-4.7,30.47,NE,38,0.0,0.0,32,0.00,,---,0.00,VWS V14.01,2013-03-04 06:35:00,
2013-03-04 00:40:00,20.5,-4.7,30.47,NE,43,0.0,0.0,32,0.00,,---,0.00,VWS V14.01,2013-03-04 06:40:00,
2013-03-04 00:45:00,20.5,-4.7,30.47,ENE,57,0.0,0.0,32,0.00,,---,0.00,VWS V14.01,2013-03-04 06:45:00,
2013-03-04 00:50:00,20.5,-4.7,30.47,NE,56,0.0,0.0,32,0.00,,---,0.00,VWS V14.01,2013-03-04 06:50:00,
2013-03-04 00:55:00,20.5,-4.7,30.47,NE,56,0.0,0.0,32,0.00,,---,0.00,VWS V14.01,2013-03-04 06:55:00,
2013-03-04 01:00:00,20.5,-4.7,30.47,NE,56,0.0,0.0,32,0.00,,---,0.00,VWS V14.01,2013-03-04 07:00:00,
2013-03-04 01:05:00,20.5,-4.7,30.47,NE,56,0.0,0.0,32,0.00,,---,0.00,VWS V14.01,2013-03-04 07:05:00,
2013-03-04 01:10:00,20.5,-4.7,30.47,NE,56,0.0,0.0,32,0.00,,---,0.00,VWS V14.01,2013-03-04 07:10:00,
2013-03-04 01:15:00,20.5,-4.7,30.47,NE,56,0.0,0.0,32,0.00,,---,0.00,VWS V14.01,2013-03-04 07:15:00,
2013-03-04 01:20:00,20.5,-4.7,30.47,NE,56,0.0,0.0,32,0.00,,---,0.00,VWS V14.01,2013-03-04 07:20:00,
2013-03-04 01:25:00,20.5,-4.7,30.47,NE,56,0.0,0.0,32,0.00,,---,0.00,VWS V14.01,2013-03-04 07:25:00,
2013-03-04 01:30:00,20.5,-4.7,30.50,NE,56,0.0,0.0,32,0.00,,---,0.00,VWS V14.01,2013-03-04 07:30:00,
2013-03-04 01:35:00,20.5,-4.7,30.50,NE,56,0.0,0.0,32,0.00,,---,0.00,VWS V14.01,2013-03-04 07:35:00,
2013-03-04 01:40:00,22.6,-2.1,30.50,NE,56,0.0,0.0,33,0.00,,---,0.00,VWS V14.01,2013-03-04 07:40:00,
2013-03-04 01:45:00,22.8,-2.0,30.50,NE,56,0.0,0.0,33,0.00,,---,0.00,VWS V14.01,2013-03-04 07:45:00,
2013-03-04 01:50:00,23.0,-1.8,30.50,NE,56,0.0,0.0,33,0.00,,---,0.00,VWS V14.01,2013-03-04 07:50:00,
2013-03-04 01:55:00,23.5,-1.3,30.50,NE,56,0.0,0.0,33,0.00,,---,0.00,VWS V14.01,2013-03-04 07:55:00,
2013-03-04 02:00:00,23.4,-1.5,30.47,NE,56,0.0,0.0,33,0.00,,---,0.00,VWS V14.01,2013-03-04 08:00:00,
2013-03-04 02:05:00,23.4,-1.5,30.47,NE,56,0.0,0.0,33,0.00,,---,0.00,VWS V14.01,2013-03-04 08:05:00,
2013-03-04 02:10:00,23.5,-1.3,30.47,NE,56,0.0,0.0,33,0.00,,---,0.00,VWS V14.01,2013-03-04 08:10:00,
2013-03-04 02:15:00,23.5,-1.3,30.50,NE,56,0.0,0.0,33,0.00,,---,0.00,VWS V14.01,2013-03-04 08:15:00,
2013-03-04 02:20:00,23.5,-1.3,30.50,NE,56,0.0,0.0,33,0.00,,---,0.00,VWS V14.01,2013-03-04 08:20:00,
2013-03-04 02:25:00,23.5,-1.3,30.50,NE,56,0.0,0.0,33,0.00,,---,0.00,VWS V14.01,2013-03-04 08:25:00,
2013-03-04 02:30:00,23.5,-1.3,30.50,NE,55,6.3,6.3,33,0.00,,---,0.00,VWS V14.01,2013-03-04 08:30:00,
2013-03-04 02:35:00,23.5,-1.3,30.50,NE,56,6.3,6.3,33,0.00,,---,0.00,VWS V14.01,2013-03-04 08:35:00,
2013-03-04 02:40:00,23.5,-1.3,30.50,NE,52,8.1,9.8,33,0.00,,---,0.00,VWS V14.01,2013-03-04 08:40:00,
2013-03-04 02:45:00,23.5,-1.3,30.47,ENE,57,7.2,8.1,33,0.00,,---,0.00,VWS V14.01,2013-03-04 08:45:00,
2013-03-04 02:50:00,23.5,-1.3,30.47,ENE,60,5.4,6.3,33,0.00,,---,0.00,VWS V14.01,2013-03-04 08:50:00,
2013-03-04 02:55:00,23.5,0.0,30.47,ENE,64,4.5,5.4,0,0.00,,---,0.00,VWS V14.01,2013-03-04 08:55:00,
2013-03-04 03:00:00,23.5,0.0,30.47,ENE,71,5.4,5.4,0,0.00,,---,0.00,VWS V14.01,2013-03-04 09:00:00,
2013-03-04 03:05:00,23.5,0.0,30.47,East,82,0.0,0.0,0,0.00,,---,0.00,VWS V14.01,2013-03-04 09:05:00,
2013-03-04 03:10:00,23.7,-1.2,30.47,East,81,0.0,0.0,33,0.00,,---,0.00,VWS V14.01,2013-03-04 09:10:00,
2013-03-04 03:15:00,24.1,-0.9,30.47,ENE,69,6.3,7.2,33,0.00,,---,0.00,VWS V14.01,2013-03-04 09:15:00,
2013-03-04 03:20:00,24.3,-0.7,30.47,ENE,63,6.3,8.1,33,0.00,,---,0.00,VWS V14.01,2013-03-04 09:20:00,
2013-03-04 03:25:00,24.4,-0.5,30.47,ENE,65,9.8,9.8,33,0.00,,---,0.00,VWS V14.01,2013-03-04 09:25:00,
2013-03-04 03:30:00,24.3,-0.7,30.47,NE,47,5.4,6.3,33,0.00,,---,0.00,VWS V14.01,2013-03-04 09:30:00,
2013-03-04 03:35:00,24.4,-0.5,30.47,ENE,68,7.2,7.2,33,0.00,,---,0.00,VWS V14.01,2013-03-04 09:35:00,
2013-03-04 03:40:00,24.3,0.0,30.47,ENE,78,4.5,6.3,0,0.00,,---,0.00,VWS V14.01,2013-03-04 09:40:00,
2013-03-04 03:45:00,24.3,0.0,30.47,ENE,77,4.5,5.4,0,0.00,,---,0.00,VWS V14.01,2013-03-04 09:45:00,
2013-03-04 03:50:00,24.3,0.0,30.47,ENE,64,5.4,5.4,0,0.00,,---,0.00,VWS V14.01,2013-03-04 09:50:00,
2013-03-04 03:55:00,24.3,0.0,30.47,East,101,5.4,6.3,0,0.00,,---,0.00,VWS V14.01,2013-03-04 09:55:00,
2013-03-04 04:00:00,24.3,0.0,30.47,NE,52,4.5,5.4,0,0.00,,---,0.00,VWS V14.01,2013-03-04 10:00:00,
2013-03-04 04:05:00,24.3,0.0,30.47,East,79,0.0,5.4,0,0.00,,---,0.00,VWS V14.01,2013-03-04 10:05:00,
2013-03-04 04:10:00,24.3,0.0,30.47,ENE,57,0.0,0.0,0,0.00,,---,0.00,VWS V14.01,2013-03-04 10:10:00,
2013-03-04 04:15:00,24.3,0.0,30.47,ENE,60,0.0,0.0,0,0.00,,---,0.00,VWS V14.01,2013-03-04 10:15:00,
2013-03-04 04:20:00,24.3,0.0,30.47,ENE,57,8.1,8.1,0,0.00,,---,0.00,VWS V14.01,2013-03-04 10:20:00,
2013-03-04 04:25:00,24.3,0.0,30.47,ENE,62,8.1,8.1,0,0.00,,---,0.00,VWS V14.01,2013-03-04 10:25:00,
2013-03-04 04:30:00,24.3,0.0,30.47,ENE,62,8.1,9.8,0,0.00,,---,0.00,VWS V14.01,2013-03-04 10:30:00,
2013-03-04 04:35:00,24.3,0.0,30.47,ENE,68,9.8,10.7,0,0.00,,---,0.00,VWS V14.01,2013-03-04 10:35:00,
2013-03-04 04:40:00,24.3,0.0,30.47,NE,56,8.1,9.8,0,0.00,,---,0.00,VWS V14.01,2013-03-04 10:40:00,
2013-03-04 04:45:00,24.3,0.0,30.47,ENE,57,6.3,6.3,0,0.00,,---,0.00,VWS V14.01,2013-03-04 10:45:00,
2013-03-04 04:50:00,24.3,0.0,30.47,ENE,58,5.4,5.4,0,0.00,,---,0.00,VWS V14.01,2013-03-04 10:50:00,
2013-03-04 04:55:00,24.3,0.0,30.47,ENE,68,5.4,5.4,0,0.00,,---,0.00,VWS V14.01,2013-03-04 10:55:00,
2013-03-04 05:00:00,24.3,0.0,30.47,ENE,59,5.4,6.3,0,0.00,,---,0.00,VWS V14.01,2013-03-04 11:00:00,
2013-03-04 05:05:00,24.3,0.0,30.47,ENE,69,5.4,5.4,0,0.00,,---,0.00,VWS V14.01,2013-03-04 11:05:00,
2013-03-04 05:10:00,24.3,0.0,30.47,ENE,57,5.4,8.1,0,0.00,,---,0.00,VWS V14.01,2013-03-04 11:10:00,
2013-03-04 05:15:00,24.3,0.0,30.50,ENE,58,5.4,8.1,0,0.00,,---,0.00,VWS V14.01,2013-03-04 11:15:00,
2013-03-04 05:20:00,24.3,0.0,30.50,East,100,0.0,5.4,0,0.00,,---,0.00,VWS V14.01,2013-03-04 11:20:00,
2013-03-04 05:25:00,24.3,0.0,30.50,East,83,5.4,6.3,0,0.00,,---,0.00,VWS V14.01,2013-03-04 11:25:00,
2013-03-04 05:30:00,24.3,0.0,30.47,East,96,7.2,7.2,0,0.00,,---,0.00,VWS V14.01,2013-03-04 11:30:00,
2013-03-04 05:35:00,24.3,0.0,30.47,ENE,64,6.3,8.1,0,0.00,,---,0.00,VWS V14.01,2013-03-04 11:35:00,
2013-03-04 05:40:00,24.3,0.0,30.47,East,83,7.2,7.2,0,0.00,,---,0.00,VWS V14.01,2013-03-04 11:40:00,
2013-03-04 05:45:00,24.3,0.0,30.50,ENE,58,6.3,8.1,0,0.00,,---,0.00,VWS V14.01,2013-03-04 11:45:00,
2013-03-04 05:50:00,24.3,0.0,30.50,ENE,69,5.4,6.3,0,0.00,,---,0.00,VWS V14.01,2013-03-04 11:50:00,
2013-03-04 05:55:00,24.3,0.0,30.50,ENE,68,7.2,7.2,0,0.00,,---,0.00,VWS V14.01,2013-03-04 11:55:00,
2013-03-04 06:00:00,24.3,0.0,30.47,ENE,59,6.3,7.2,0,0.00,,---,0.00,VWS V14.01,2013-03-04 12:00:00,
2013-03-04 06:05:00,24.3,0.0,30.47,ENE,63,6.3,7.2,0,0.00,,---,0.00,VWS V14.01,2013-03-04 12:05:00,
2013-03-04 06:10:00,24.3,0.0,30.47,ESE,108,5.4,5.4,0,0.00,,---,0.00,VWS V14.01,2013-03-04 12:10:00,
2013-03-04 06:15:00,24.3,0.0,30.50,NE,56,6.3,7.2,0,0.00,,---,0.00,VWS V14.01,2013-03-04 12:15:00,
2013-03-04 06:20:00,24.3,0.0,30.50,ENE,65,7.2,7.2,0,0.00,,---,0.00,VWS V14.01,2013-03-04 12:20:00,
2013-03-04 06:25:00,24.3,0.0,30.50,ENE,59,10.7,10.7,0,0.00,,---,0.00,VWS V14.01,2013-03-04 12:25:00,
2013-03-04 06:30:00,24.3,0.0,30.47,ENE,67,8.1,8.1,0,0.00,,---,0.00,VWS V14.01,2013-03-04 12:30:00,
2013-03-04 06:35:00,24.3,0.0,30.47,ENE,67,11.6,11.6,0,0.00,,---,0.00,VWS V14.01,2013-03-04 12:35:00,
2013-03-04 06:40:00,24.3,0.0,30.47,NE,49,6.3,9.8,0,0.00,,---,0.00,VWS V14.01,2013-03-04 12:40:00,
2013-03-04 06:45:00,24.3,0.0,30.47,ENE,75,8.1,8.1,0,0.00,,---,0.00,VWS V14.01,2013-03-04 12:45:00,
2013-03-04 06:50:00,24.3,0.0,30.47,NE,44,8.1,8.9,0,0.00,,---,0.00,VWS V14.01,2013-03-04 12:50:00,
2013-03-04 06:55:00,24.3,0.0,30.47,NE,51,8.1,8.1,0,0.00,,---,0.00,VWS V14.01,2013-03-04 12:55:00,
2013-03-04 07:00:00,24.3,0.0,30.47,ENE,76,11.6,11.6,0,0.00,,---,0.00,VWS V14.01,2013-03-04 13:00:00,
2013-03-04 07:05:00,24.3,0.0,30.47,ENE,57,8.1,8.1,0,0.00,,---,0.00,VWS V14.01,2013-03-04 13:05:00,
2013-03-04 07:10:00,24.3,0.0,30.47,ESE,112,7.2,7.2,0,0.00,,---,0.00,VWS V14.01,2013-03-04 13:10:00,
2013-03-04 07:15:00,24.3,0.0,30.47,NE,45,10.7,10.7,0,0.00,,---,0.00,VWS V14.01,2013-03-04 13:15:00,
2013-03-04 07:20:00,24.3,0.0,30.47,ENE,61,5.4,5.4,0,0.00,,---,0.00,VWS V14.01,2013-03-04 13:20:00,
2013-03-04 07:25:00,24.3,0.0,30.47,East,89,7.2,7.2,0,0.00,,---,0.00,VWS V14.01,2013-03-04 13:25:00,
2013-03-04 07:30:00,24.3,0.0,30.47,NE,54,6.3,6.3,0,0.00,,---,0.00,VWS V14.01,2013-03-04 13:30:00,
2013-03-04 07:35:00,24.3,0.0,30.47,ESE,123,6.3,8.1,0,0.00,,---,0.00,VWS V14.01,2013-03-04 13:35:00,
2013-03-04 07:40:00,24.3,0.0,30.47,NE,55,7.2,7.2,0,0.00,,---,0.00,VWS V14.01,2013-03-04 13:40:00,
2013-03-04 07:45:00,24.3,0.0,30.47,SE,146,7.2,8.1,0,0.00,,---,0.00,VWS V14.01,2013-03-04 13:45:00,
2013-03-04 07:50:00,24.3,0.0,30.47,ENE,66,6.3,8.1,0,0.00,,---,0.00,VWS V14.01,2013-03-04 13:50:00,
2013-03-04 07:55:00,24.3,0.0,30.47,ENE,69,7.2,11.6,0,0.00,,---,0.00,VWS V14.01,2013-03-04 13:55:00,
2013-03-04 08:00:00,24.3,0.0,30.47,ENE,57,8.1,8.1,0,0.00,,---,0.00,VWS V14.01,2013-03-04 14:00:00,
2013-03-04 08:05:00,24.3,0.0,30.47,NE,51,8.9,8.9,0,0.00,,---,0.00,VWS V14.01,2013-03-04 14:05:00,
2013-03-04 08:10:00,24.3,0.0,30.47,ESE,112,10.7,10.7,0,0.00,,---,0.00,VWS V14.01,2013-03-04 14:10:00,
2013-03-04 08:15:00,24.3,0.0,30.47,East,101,8.1,8.1,0,0.00,,---,0.00,VWS V14.01,2013-03-04 14:15:00,
2013-03-04 08:20:00,24.3,0.0,30.47,NE,50,12.5,12.5,0,0.00,,---,0.00,VWS V14.01,2013-03-04 14:20:00,
2013-03-04 08:25:00,24.3,0.0,30.47,East,94,8.1,16.1,0,0.00,,---,0.00,VWS V14.01,2013-03-04 14:25:00,
2013-03-04 08:30:00,24.3,0.0,30.47,East,82,8.1,11.6,0,0.00,,---,0.00,VWS V14.01,2013-03-04 14:30:00,
2013-03-04 08:35:00,24.3,0.0,30.47,ENE,69,7.2,7.2,0,0.00,,---,0.00,VWS V14.01,2013-03-04 14:35:00,
2013-03-04 08:40:00,24.3,0.0,30.47,ENE,76,10.7,10.7,0,0.00,,---,0.00,VWS V14.01,2013-03-04 14:40:00,
2013-03-04 08:45:00,24.3,0.0,30.47,ENE,59,6.3,9.8,0,0.00,,---,0.00,VWS V14.01,2013-03-04 14:45:00,
2013-03-04 08:50:00,24.3,0.0,30.47,ENE,68,10.7,10.7,0,0.00,,---,0.00,VWS V14.01,2013-03-04 14:50:00,
2013-03-04 08:55:00,24.3,0.0,30.47,NE,45,11.6,11.6,0,0.00,,---,0.00,VWS V14.01,2013-03-04 14:55:00,
2013-03-04 09:00:00,24.3,0.0,30.47,ENE,61,8.1,8.1,0,0.00,,---,0.00,VWS V14.01,2013-03-04 15:00:00,
2013-03-04 09:05:00,24.3,0.0,30.47,East,81,16.6,16.6,0,0.00,,---,0.00,VWS V14.01,2013-03-04 15:05:00,
2013-03-04 09:10:00,24.3,0.0,30.47,ENE,65,10.7,11.6,0,0.00,,---,0.00,VWS V14.01,2013-03-04 15:10:00,
2013-03-04 09:15:00,24.3,0.0,30.47,East,93,11.6,11.6,0,0.00,,---,0.00,VWS V14.01,2013-03-04 15:15:00,
2013-03-04 09:20:00,24.3,0.0,30.47,ENE,57,7.2,7.2,0,0.00,,---,0.00,VWS V14.01,2013-03-04 15:20:00,
2013-03-04 09:25:00,24.3,0.0,30.47,East,97,11.6,11.6,0,0.00,,---,0.00,VWS V14.01,2013-03-04 15:25:00,
2013-03-04 09:30:00,24.3,0.0,30.47,ENE,77,17.4,17.4,0,0.00,,---,0.00,VWS V14.01,2013-03-04 15:30:00,
2013-03-04 09:35:00,24.3,0.0,30.47,ENE,70,8.1,8.9,0,0.00,,---,0.00,VWS V14.01,2013-03-04 15:35:00,
2013-03-04 09:40:00,24.3,0.0,30.47,NE,47,10.7,12.5,0,0.00,,---,0.00,VWS V14.01,2013-03-04 15:40:00,
2013-03-04 09:45:00,24.3,0.0,30.45,ENE,63,19.2,19.2,0,0.00,,---,0.00,VWS V14.01,2013-03-04 15:45:00,
2013-03-04 09:50:00,24.3,0.0,30.45,ENE,64,10.7,10.7,0,0.00,,---,0.00,VWS V14.01,2013-03-04 15:50:00,
2013-03-04 09:55:00,24.3,0.0,30.45,ENE,78,9.8,9.8,0,0.00,,---,0.00,VWS V14.01,2013-03-04 15:55:00,
2013-03-04 10:00:00,24.3,0.0,30.47,ENE,59,11.6,11.6,0,0.00,,---,0.00,VWS V14.01,2013-03-04 16:00:00,
2013-03-04 10:05:00,24.3,0.0,30.47,East,88,7.2,7.2,0,0.00,,---,0.00,VWS V14.01,2013-03-04 16:05:00,
2013-03-04 10:10:00,24.3,0.0,30.47,ENE,62,9.8,9.8,0,0.00,,---,0.00,VWS V14.01,2013-03-04 16:10:00,
2013-03-04 10:15:00,24.3,0.0,30.47,ENE,75,9.8,9.8,0,0.00,,---,0.00,VWS V14.01,2013-03-04 16:15:00,
2013-03-04 10:20:00,24.3,0.0,30.47,ESE,120,9.8,9.8,0,0.00,,---,0.00,VWS V14.01,2013-03-04 16:20:00,
2013-03-04 10:25:00,24.3,0.0,30.47,ENE,62,10.7,10.7,0,0.00,,---,0.00,VWS V14.01,2013-03-04 16:25:00,
2013-03-04 10:30:00,24.3,0.0,30.47,North,1,10.7,11.6,0,0.00,,---,0.00,VWS V14.01,2013-03-04 16:30:00,
2013-03-04 10:35:00,24.3,0.0,30.47,ENE,65,10.7,10.7,0,0.00,,---,0.00,VWS V14.01,2013-03-04 16:35:00,
2013-03-04 10:40:00,24.3,0.0,30.47,ENE,60,8.1,15.2,0,0.00,,---,0.00,VWS V14.01,2013-03-04 16:40:00,
2013-03-04 10:45:00,24.3,0.0,30.47,ENE,60,10.7,12.5,0,0.00,,---,0.00,VWS V14.01,2013-03-04 16:45:00,
2013-03-04 10:50:00,24.3,0.0,30.47,ENE,77,10.7,11.6,0,0.00,,---,0.00,VWS V14.01,2013-03-04 16:50:00,
2013-03-04 10:55:00,24.3,0.0,30.47,NE,41,10.7,11.6,0,0.00,,---,0.00,VWS V14.01,2013-03-04 16:55:00,
2013-03-04 11:00:00,24.3,0.0,30.47,NE,48,16.6,16.6,0,0.00,,---,0.00,VWS V14.01,2013-03-04 17:00:00,
2013-03-04 11:05:00,24.3,0.0,30.47,ENE,63,8.1,10.7,0,0.00,,---,0.00,VWS V14.01,2013-03-04 17:05:00,
2013-03-04 11:10:00,24.3,0.0,30.47,ENE,73,17.4,17.4,0,0.00,,---,0.00,VWS V14.01,2013-03-04 17:10:00,
2013-03-04 11:15:00,24.3,0.0,30.45,ENE,60,10.7,12.5,0,0.00,,---,0.00,VWS V14.01,2013-03-04 17:15:00,
2013-03-04 11:20:00,24.3,0.0,30.45,East,97,10.7,10.7,0,0.00,,---,0.00,VWS V14.01,2013-03-04 17:20:00,
2013-03-04 11:25:00,24.3,0.0,30.45,ENE,71,16.6,19.2,0,0.00,,---,0.00,VWS V14.01,2013-03-04 17:25:00,
2013-03-04 11:30:00,24.3,0.0,30.45,NE,37,20.1,20.1,0,0.00,,---,0.00,VWS V14.01,2013-03-04 17:30:00,
2013-03-04 11:35:00,24.3,0.0,30.45,ENE,72,22.8,22.8,0,0.00,,---,0.00,VWS V14.01,2013-03-04 17:35:00,
2013-03-04 11:40:00,24.3,0.0,30.45,NE,47,18.3,18.3,0,0.00,,---,0.00,VWS V14.01,2013-03-04 17:40:00,
2013-03-04 11:45:00,24.3,0.0,30.45,NE,54,17.4,17.4,0,0.00,,---,0.00,VWS V14.01,2013-03-04 17:45:00,
2013-03-04 11:50:00,24.3,0.0,30.45,NE,48,15.2,15.2,0,0.00,,---,0.00,VWS V14.01,2013-03-04 17:50:00,
2013-03-04 11:55:00,24.3,0.0,30.45,ENE,64,18.3,18.3,0,0.00,,---,0.00,VWS V14.01,2013-03-04 17:55:00,
2013-03-04 12:00:00,24.3,0.0,30.45,NE,56,20.1,20.1,0,0.00,,---,0.00,VWS V14.01,2013-03-04 18:00:00,
2013-03-04 12:05:00,24.3,0.0,30.45,ENE,57,20.1,20.1,0,0.00,,---,0.00,VWS V14.01,2013-03-04 18:05:00,
2013-03-04 12:10:00,24.3,0.0,30.45,ENE,67,17.4,17.4,0,0.00,,---,0.00,VWS V14.01,2013-03-04 18:10:00,
2013-03-04 12:15:00,24.3,0.0,30.45,East,83,19.2,19.2,0,0.00,,---,0.00,VWS V14.01,2013-03-04 18:15:00,
2013-03-04 12:20:00,24.3,0.0,30.45,NE,52,15.2,21.9,0,0.00,,---,0.00,VWS V14.01,2013-03-04 18:20:00,
2013-03-04 12:25:00,24.3,0.0,30.45,East,80,17.4,17.4,0,0.00,,---,0.00,VWS V14.01,2013-03-04 18:25:00,
2013-03-04 12:29:00,24.3,0.0,30.42,NE,41,15.2,17.4,0,0.00,,---,0.00,VWS V14.01,2013-03-04 18:29:00,
2013-03-04 12:34:00,24.3,0.0,30.42,NE,48,16.6,21.0,0,0.00,,---,0.00,VWS V14.01,2013-03-04 18:34:00,
2013-03-04 12:39:00,24.3,0.0,30.42,NE,47,16.1,17.4,0,0.00,,---,0.00,VWS V14.01,2013-03-04 18:39:00,
2013-03-04 12:44:00,24.3,0.0,30.42,NE,45,16.1,17.4,0,0.00,,---,0.00,VWS V14.01,2013-03-04 18:44:00,
2013-03-04 12:49:00,24.3,0.0,30.42,ENE,62,10.7,16.6,0,0.00,,---,0.00,VWS V14.01,2013-03-04 18:49:00,
2013-03-04 12:54:00,24.3,0.0,30.42,ENE,74,19.2,19.2,0,0.00,,---,0.00,VWS V14.01,2013-03-04 18:54:00,
2013-03-04 12:59:00,24.3,0.0,30.42,ENE,69,12.5,12.5,0,0.00,,---,0.00,VWS V14.01,2013-03-04 18:59:00,
2013-03-04 13:04:00,24.3,0.0,30.42,NE,42,16.1,17.4,0,0.00,,---,0.00,VWS V14.01,2013-03-04 19:04:00,
2013-03-04 13:09:00,24.3,0.0,30.42,East,87,16.6,16.6,0,0.00,,---,0.00,VWS V14.01,2013-03-04 19:09:00,
2013-03-04 13:14:00,24.3,0.0,30.42,ENE,62,11.6,15.2,0,0.00,,---,0.00,VWS V14.01,2013-03-04 19:14:00,
2013-03-04 13:19:00,24.3,0.0,30.42,NE,48,11.6,12.5,0,0.00,,---,0.00,VWS V14.01,2013-03-04 19:19:00,
2013-03-04 13:24:00,24.3,0.0,30.42,NE,47,16.6,16.6,0,0.00,,---,0.00,VWS V14.01,2013-03-04 19:24:00,
2013-03-04 13:29:00,24.3,0.0,30.42,ENE,74,15.2,17.4,0,0.00,,---,0.00,VWS V14.01,2013-03-04 19:29:00,
2013-03-04 13:34:00,24.3,0.0,30.42,ENE,70,20.1,20.1,0,0.00,,---,0.00,VWS V14.01,2013-03-04 19:34:00,
2013-03-04 13:39:00,24.3,0.0,30.42,ENE,68,16.1,16.6,0,0.00,,---,0.00,VWS V14.01,2013-03-04 19:39:00,
2013-03-04 13:44:00,24.3,0.0,30.42,East,90,14.3,16.6,0,0.00,,---,0.00,VWS V14.01,2013-03-04 19:44:00,
2013-03-04 13:49:00,24.3,0.0,30.42,NE,42,21.0,21.0,0,0.00,,---,0.00,VWS V14.01,2013-03-04 19:49:00,
2013-03-04 13:54:00,24.3,0.0,30.42,NE,39,20.1,20.1,0,0.00,,---,0.00,VWS V14.01,2013-03-04 19:54:00,
2013-03-04 13:59:00,24.3,0.0,30.42,NNE,24,17.4,19.2,0,0.00,,---,0.00,VWS V14.01,2013-03-04 19:59:00,
2013-03-04 14:04:00,24.3,0.0,30.42,ENE,70,16.6,21.0,0,0.00,,---,0.00,VWS V14.01,2013-03-04 20:04:00,
2013-03-04 14:09:00,24.3,0.0,30.42,NE,48,17.4,21.9,0,0.00,,---,0.00,VWS V14.01,2013-03-04 20:09:00,
2013-03-04 14:14:00,24.3,0.0,30.42,NE,54,17.4,21.0,0,0.00,,---,0.00,VWS V14.01,2013-03-04 20:14:00,
2013-03-04 14:19:00,24.3,0.0,30.42,NE,56,21.0,21.0,0,0.00,,---,0.00,VWS V14.01,2013-03-04 20:19:00,
2013-03-04 14:24:00,24.3,0.0,30.42,NE,45,17.4,21.0,0,0.00,,---,0.00,VWS V14.01,2013-03-04 20:24:00,
2013-03-04 14:29:00,24.3,0.0,30.42,ENE,66,20.1,20.1,0,0.00,,---,0.00,VWS V14.01,2013-03-04 20:29:00,
2013-03-04 14:34:00,24.3,0.0,30.42,NE,46,20.1,22.8,0,0.00,,---,0.00,VWS V14.01,2013-03-04 20:34:00,
2013-03-04 14:39:00,24.3,0.0,30.42,NE,52,21.0,21.0,0,0.00,,---,0.00,VWS V14.01,2013-03-04 20:39:00,
2013-03-04 14:44:00,24.3,0.0,30.42,NE,38,20.1,20.1,0,0.00,,---,0.00,VWS V14.01,2013-03-04 20:44:00,
2013-03-04 14:49:00,24.3,0.0,30.42,NE,48,15.2,16.6,0,0.00,,---,0.00,VWS V14.01,2013-03-04 20:49:00,
2013-03-04 14:54:00,24.3,0.0,30.42,NE,45,21.9,21.9,0,0.00,,---,0.00,VWS V14.01,2013-03-04 20:54:00,
2013-03-04 14:59:00,24.3,0.0,30.39,ENE,74,21.0,22.8,0,0.00,,---,0.00,VWS V14.01,2013-03-04 20:59:00,
2013-03-04 15:04:00,24.3,0.0,30.39,NE,52,23.7,23.7,0,0.00,,---,0.00,VWS V14.01,2013-03-04 21:04:00,
2013-03-04 15:09:00,24.3,0.0,30.39,ENE,73,21.9,21.9,0,0.00,,---,0.00,VWS V14.01,2013-03-04 21:09:00,
2013-03-04 15:14:00,24.3,0.0,30.39,NE,51,21.9,21.9,0,0.00,,---,0.00,VWS V14.01,2013-03-04 21:14:00,
2013-03-04 15:19:00,24.3,0.0,30.39,NE,52,16.1,17.4,0,0.00,,---,0.00,VWS V14.01,2013-03-04 21:19:00,
2013-03-04 15:24:00,24.3,0.0,30.39,NE,38,16.1,21.9,0,0.00,,---,0.00,VWS V14.01,2013-03-04 21:24:00,
2013-03-04 15:29:00,24.3,0.0,30.39,ENE,68,15.2,19.2,0,0.00,,---,0.00,VWS V14.01,2013-03-04 21:29:00,
2013-03-04 15:34:00,24.3,0.0,30.39,NE,39,21.0,21.0,0,0.00,,---,0.00,VWS V14.01,2013-03-04 21:34:00,
2013-03-04 15:39:00,24.3,0.0,30.39,NE,44,16.6,20.1,0,0.00,,---,0.00,VWS V14.01,2013-03-04 21:39:00,
2013-03-04 15:44:00,24.3,0.0,30.39,ENE,65,21.0,21.0,0,0.00,,---,0.00,VWS V14.01,2013-03-04 21:44:00,
2013-03-04 15:49:00,24.3,0.0,30.39,ENE,72,21.0,21.0,0,0.00,,---,0.00,VWS V14.01,2013-03-04 21:49:00,
2013-03-04 15:54:00,24.3,0.0,30.39,NE,53,17.4,21.0,0,0.00,,---,0.00,VWS V14.01,2013-03-04 21:54:00,
2013-03-04 15:59:00,24.3,0.0,30.39,ENE,74,21.0,21.0,0,0.00,,---,0.00,VWS V14.01,2013-03-04 21:59:00,
2013-03-04 16:04:00,24.3,0.0,30.39,ENE,59,21.0,21.0,0,0.00,,---,0.00,VWS V14.01,2013-03-04 22:04:00,
2013-03-04 16:09:00,24.3,0.0,30.39,ENE,68,21.0,21.0,0,0.00,,---,0.00,VWS V14.01,2013-03-04 22:09:00,
2013-03-04 16:14:00,24.3,0.0,30.39,NE,46,21.9,26.4,0,0.00,,---,0.00,VWS V14.01,2013-03-04 22:14:00,
2013-03-04 16:19:00,24.3,0.0,30.39,NE,49,20.1,21.9,0,0.00,,---,0.00,VWS V14.01,2013-03-04 22:19:00,
2013-03-04 16:24:00,24.3,0.0,30.39,ENE,58,21.9,22.8,0,0.00,,---,0.00,VWS V14.01,2013-03-04 22:24:00,
2013-03-04 16:29:00,24.3,0.0,30.39,NE,51,20.1,20.1,0,0.00,,---,0.00,VWS V14.01,2013-03-04 22:29:00,
2013-03-04 16:34:00,24.3,0.0,30.39,ENE,65,21.0,23.7,0,0.00,,---,0.00,VWS V14.01,2013-03-04 22:34:00,
2013-03-04 16:39:00,24.3,0.0,30.39,ENE,64,11.6,16.1,0,0.00,,---,0.00,VWS V14.01,2013-03-04 22:39:00,
2013-03-04 16:44:00,24.3,0.0,30.39,NE,51,20.1,20.1,0,0.00,,---,0.00,VWS V14.01,2013-03-04 22:44:00,
2013-03-04 16:49:00,24.3,0.0,30.39,NE,53,19.2,20.1,0,0.00,,---,0.00,VWS V14.01,2013-03-04 22:49:00,
2013-03-04 16:54:00,24.3,0.0,30.39,NE,35,19.2,21.0,0,0.00,,---,0.00,VWS V14.01,2013-03-04 22:54:00,
2013-03-04 16:59:00,24.3,0.0,30.39,ENE,74,16.6,20.1,0,0.00,,---,0.00,VWS V14.01,2013-03-04 22:59:00,
2013-03-04 17:04:00,24.3,0.0,30.39,NE,49,20.1,20.1,0,0.00,,---,0.00,VWS V14.01,2013-03-04 23:04:00,
2013-03-04 17:09:00,24.3,0.0,30.39,NE,46,16.1,20.1,0,0.00,,---,0.00,VWS V14.01,2013-03-04 23:09:00,
2013-03-04 17:14:00,24.3,0.0,30.39,NE,49,16.6,17.4,0,0.00,,---,0.00,VWS V14.01,2013-03-04 23:14:00,
2013-03-04 17:19:00,24.3,0.0,30.39,NE,45,15.2,15.2,0,0.00,,---,0.00,VWS V14.01,2013-03-04 23:19:00,
2013-03-04 17:24:00,24.3,0.0,30.39,East,80,12.5,15.2,0,0.00,,---,0.00,VWS V14.01,2013-03-04 23:24:00,
2013-03-04 17:29:00,24.3,0.0,30.42,ENE,73,10.7,16.1,0,0.00,,---,0.00,VWS V14.01,2013-03-04 23:29:00,
2013-03-04 17:34:00,24.3,0.0,30.42,ENE,62,12.5,16.6,0,0.00,,---,0.00,VWS V14.01,2013-03-04 23:34:00,
2013-03-04 17:39:00,24.3,0.0,30.42,ENE,61,13.4,13.4,0,0.00,,---,0.00,VWS V14.01,2013-03-04 23:39:00,
2013-03-04 17:44:00,24.3,0.0,30.42,NE,44,10.7,12.5,0,0.00,,---,0.00,VWS V14.01,2013-03-04 23:44:00,
2013-03-04 17:49:00,24.3,0.0,30.42,NE,46,12.5,14.3,0,0.00,,---,0.00,VWS V14.01,2013-03-04 23:49:00,
2013-03-04 17:54:00,24.3,0.0,30.42,ENE,58,15.2,17.4,0,0.00,,---,0.00,VWS V14.01,2013-03-04 23:54:00,
2013-03-04 17:59:00,24.3,0.0,30.42,ENE,62,11.6,11.6,0,0.00,,---,0.00,VWS V14.01,2013-03-04 23:59:00,
2013-03-04 18:04:00,24.3,0.0,30.42,NE,47,10.7,11.6,0,0.00,,---,0.00,VWS V14.01,2013-03-05 00:04:00,
2013-03-04 18:09:00,24.3,0.0,30.42,ENE,71,11.6,16.1,0,0.00,,---,0.00,VWS V14.01,2013-03-05 00:09:00,
2013-03-04 18:14:00,24.3,0.0,30.42,ENE,73,12.5,16.1,0,0.00,,---,0.00,VWS V14.01,2013-03-05 00:14:00,
2013-03-04 18:19:00,24.3,0.0,30.42,NE,56,12.5,20.1,0,0.00,,---,0.00,VWS V14.01,2013-03-05 00:19:00,
2013-03-04 18:24:00,24.3,0.0,30.42,East,82,11.6,15.2,0,0.00,,---,0.00,VWS V14.01,2013-03-05 00:24:00,
2013-03-04 18:29:00,24.3,0.0,30.42,ENE,71,12.5,17.4,0,0.00,,---,0.00,VWS V14.01,2013-03-05 00:29:00,
2013-03-04 18:34:00,24.3,0.0,30.42,NE,54,12.5,16.6,0,0.00,,---,0.00,VWS V14.01,2013-03-05 00:34:00,
2013-03-04 18:39:00,24.3,0.0,30.42,NE,48,12.5,12.5,0,0.00,,---,0.00,VWS V14.01,2013-03-05 00:39:00,
2013-03-04 18:44:00,24.3,0.0,30.42,NE,47,15.2,15.2,0,0.00,,---,0.00,VWS V14.01,2013-03-05 00:44:00,
2013-03-04 18:49:00,24.3,0.0,30.42,NE,54,16.1,16.1,0,0.00,,---,0.00,VWS V14.01,2013-03-05 00:49:00,
2013-03-04 18:54:00,24.3,0.0,30.42,ENE,57,15.2,19.2,0,0.00,,---,0.00,VWS V14.01,2013-03-05 00:54:00,
2013-03-04 18:59:00,24.3,0.0,30.42,NE,54,12.5,17.4,0,0.00,,---,0.00,VWS V14.01,2013-03-05 00:59:00,
2013-03-04 19:04:00,24.3,0.0,30.42,ENE,68,11.6,11.6,0,0.00,,---,0.00,VWS V14.01,2013-03-05 01:04:00,
2013-03-04 19:09:00,24.3,0.0,30.42,ENE,77,12.5,12.5,0,0.00,,---,0.00,VWS V14.01,2013-03-05 01:09:00,
2013-03-04 19:14:00,24.3,0.0,30.42,ENE,57,13.4,15.2,0,0.00,,---,0.00,VWS V14.01,2013-03-05 01:14:00,
2013-03-04 19:19:00,24.3,0.0,30.42,ENE,61,11.6,12.5,0,0.00,,---,0.00,VWS V14.01,2013-03-05 01:19:00,
2013-03-04 19:24:00,24.3,0.0,30.42,NE,47,12.5,15.2,0,0.00,,---,0.00,VWS V14.01,2013-03-05 01:24:00,
2013-03-04 19:29:00,24.3,0.0,30.45,ENE,69,11.6,11.6,0,0.00,,---,0.00,VWS V14.01,2013-03-05 01:29:00,
2013-03-04 19:34:00,24.3,0.0,30.45,NE,53,11.6,11.6,0,0.00,,---,0.00,VWS V14.01,2013-03-05 01:34:00,
2013-03-04 19:39:00,24.3,0.0,30.45,NE,47,10.7,12.5,0,0.00,,---,0.00,VWS V14.01,2013-03-05 01:39:00,
2013-03-04 19:44:00,24.3,0.0,30.45,NE,43,12.5,12.5,0,0.00,,---,0.00,VWS V14.01,2013-03-05 01:44:00,
2013-03-04 19:49:00,24.3,0.0,30.45,NE,49,11.6,11.6,0,0.00,,---,0.00,VWS V14.01,2013-03-05 01:49:00,
2013-03-04 19:54:00,24.3,0.0,30.45,NE,45,11.6,16.1,0,0.00,,---,0.00,VWS V14.01,2013-03-05 01:54:00,
2013-03-04 19:59:00,24.3,0.0,30.45,NE,52,10.7,12.5,0,0.00,,---,0.00,VWS V14.01,2013-03-05 01:59:00,
2013-03-04 20:04:00,24.3,0.0,30.45,NE,48,8.1,11.6,0,0.00,,---,0.00,VWS V14.01,2013-03-05 02:04:00,
2013-03-04 20:09:00,24.3,0.0,30.45,ENE,74,11.6,12.5,0,0.00,,---,0.00,VWS V14.01,2013-03-05 02:09:00,
2013-03-04 20:14:00,24.3,0.0,30.45,NE,47,11.6,12.5,0,0.00,,---,0.00,VWS V14.01,2013-03-05 02:14:00,
2013-03-04 20:19:00,24.3,0.0,30.45,NE,47,12.5,12.5,0,0.00,,---,0.00,VWS V14.01,2013-03-05 02:19:00,
2013-03-04 20:24:00,24.3,0.0,30.45,NE,43,12.5,12.5,0,0.00,,---,0.00,VWS V14.01,2013-03-05 02:24:00,
2013-03-04 20:29:00,24.3,0.0,30.45,NE,52,11.6,11.6,0,0.00,,---,0.00,VWS V14.01,2013-03-05 02:29:00,
2013-03-04 20:34:00,24.3,0.0,30.45,NE,41,11.6,11.6,0,0.00,,---,0.00,VWS V14.01,2013-03-05 02:34:00,
2013-03-04 20:39:00,24.3,0.0,30.45,NNE,28,10.7,12.5,0,0.00,,---,0.00,VWS V14.01,2013-03-05 02:39:00,
2013-03-04 20:44:00,24.3,0.0,30.45,NE,48,10.7,11.6,0,0.00,,---,0.00,VWS V14.01,2013-03-05 02:44:00,
2013-03-04 20:49:00,24.3,0.0,30.45,NE,48,11.6,11.6,0,0.00,,---,0.00,VWS V14.01,2013-03-05 02:49:00,
2013-03-04 20:54:00,24.3,0.0,30.45,NE,47,10.7,11.6,0,0.00,,---,0.00,VWS V14.01,2013-03-05 02:54:00,
2013-03-04 20:59:00,24.3,0.0,30.45,NE,44,10.7,15.2,0,0.00,,---,0.00,VWS V14.01,2013-03-05 02:59:00,
2013-03-04 21:04:00,24.3,0.0,30.45,NE,49,11.6,12.5,0,0.00,,---,0.00,VWS V14.01,2013-03-05 03:04:00,
2013-03-04 21:09:00,24.3,0.0,30.45,NE,45,11.6,11.6,0,0.00,,---,0.00,VWS V14.01,2013-03-05 03:09:00,
2013-03-04 21:14:00,24.3,0.0,30.42,NE,40,8.1,10.7,0,0.00,,---,0.00,VWS V14.01,2013-03-05 03:14:00,
2013-03-04 21:19:00,24.3,0.0,30.42,NE,41,10.7,10.7,0,0.00,,---,0.00,VWS V14.01,2013-03-05 03:19:00,
2013-03-04 21:24:00,24.3,0.0,30.42,NE,48,12.5,16.1,0,0.00,,---,0.00,VWS V14.01,2013-03-05 03:24:00,
2013-03-04 21:29:00,24.3,0.0,30.45,NE,35,10.7,15.2,0,0.00,,---,0.00,VWS V14.01,2013-03-05 03:29:00,
2013-03-04 21:34:00,24.3,0.0,30.45,NE,38,12.5,12.5,0,0.00,,---,0.00,VWS V14.01,2013-03-05 03:34:00,
2013-03-04 21:39:00,24.3,0.0,30.45,NE,40,11.6,11.6,0,0.00,,---,0.00,VWS V14.01,2013-03-05 03:39:00,
2013-03-04 21:44:00,24.3,0.0,30.45,NE,40,10.7,17.4,0,0.00,,---,0.00,VWS V14.01,2013-03-05 03:44:00,
2013-03-04 21:49:00,24.3,0.0,30.45,NE,42,17.4,17.4,0,0.00,,---,0.00,VWS V14.01,2013-03-05 03:49:00,
2013-03-04 21:54:00,24.3,0.0,30.45,NNE,29,12.5,16.1,0,0.00,,---,0.00,VWS V14.01,2013-03-05 03:54:00,
2013-03-04 21:59:00,24.3,0.0,30.45,NNE,28,17.4,17.4,0,0.00,,---,0.00,VWS V14.01,2013-03-05 03:59:00,
2013-03-04 22:04:00,24.3,0.0,30.45,NE,38,16.1,16.1,0,0.00,,---,0.00,VWS V14.01,2013-03-05 04:04:00,
2013-03-04 22:09:00,24.3,0.0,30.45,NE,39,15.2,16.6,0,0.00,,---,0.00,VWS V14.01,2013-03-05 04:09:00,
2013-03-04 22:14:00,24.3,0.0,30.42,NE,45,11.6,11.6,0,0.00,,---,0.00,VWS V14.01,2013-03-05 04:14:00,
2013-03-04 22:19:00,24.3,0.0,30.42,NE,41,16.6,19.2,0,0.00,,---,0.00,VWS V14.01,2013-03-05 04:19:00,
2013-03-04 22:24:00,24.3,0.0,30.42,NE,43,12.5,15.2,0,0.00,,---,0.00,VWS V14.01,2013-03-05 04:24:00,
2013-03-04 22:29:00,24.3,0.0,30.42,NE,42,11.6,12.5,0,0.00,,---,0.00,VWS V14.01,2013-03-05 04:29:00,
2013-03-04 22:34:00,24.3,0.0,30.42,ENE,61,10.7,11.6,0,0.00,,---,0.00,VWS V14.01,2013-03-05 04:34:00,
2013-03-04 22:39:00,24.3,0.0,30.42,NE,45,12.5,12.5,0,0.00,,---,0.00,VWS V14.01,2013-03-05 04:39:00,
2013-03-04 22:44:00,24.3,0.0,30.42,NNE,23,9.8,12.5,0,0.00,,---,0.00,VWS V14.01,2013-03-05 04:44:00,
2013-03-04 22:49:00,24.3,0.0,30.42,NE,40,9.8,12.5,0,0.00,,---,0.00,VWS V14.01,2013-03-05 04:49:00,
2013-03-04 22:54:00,24.3,0.0,30.42,NE,45,10.7,10.7,0,0.00,,---,0.00,VWS V14.01,2013-03-05 04:54:00,
2013-03-04 22:59:00,24.3,0.0,30.42,NE,50,9.8,10.7,0,0.00,,---,0.00,VWS V14.01,2013-03-05 04:59:00,
2013-03-04 23:00:00,24.3,0.0,30.42,NE,50,8.1,10.7,0,0.00,,---,0.00,VWS V14.01,2013-03-05 05:00:00,
2013-03-04 23:05:00,24.3,0.0,30.42,NE,48,10.7,10.7,0,0.00,,---,0.00,VWS V14.01,2013-03-05 05:05:00,
2013-03-04 23:10:00,24.3,0.0,30.42,NNE,23,15.2,15.2,0,0.00,,---,0.00,VWS V14.01,2013-03-05 05:10:00,
2013-03-04 23:15:00,24.3,0.0,30.42,NE,41,12.5,12.5,0,0.00,,---,0.00,VWS V14.01,2013-03-05 05:15:00,
2013-03-04 23:20:00,24.3,0.0,30.42,NE,54,10.7,16.1,0,0.00,,---,0.00,VWS V14.01,2013-03-05 05:20:00,
2013-03-04 23:25:00,24.3,0.0,30.42,NE,55,12.5,12.5,0,0.00,,---,0.00,VWS V14.01,2013-03-05 05:25:00,
2013-03-04 23:30:00,24.3,0.0,30.42,NE,48,11.6,12.5,0,0.00,,---,0.00,VWS V14.01,2013-03-05 05:30:00,
2013-03-04 23:35:00,24.3,0.0,30.42,NE,45,12.5,12.5,0,0.00,,---,0.00,VWS V14.01,2013-03-05 05:35:00,
2013-03-04 23:40:00,24.3,0.0,30.42,NE,47,12.5,12.5,0,0.00,,---,0.00,VWS V14.01,2013-03-05 05:40:00,
2013-03-04 23:45:00,24.3,0.0,30.42,ENE,61,12.5,12.5,0,0.00,,---,0.00,VWS V14.01,2013-03-05 05:45:00,
2013-03-04 23:50:00,24.3,0.0,30.42,NE,48,10.7,11.6,0,0.00,,---,0.00,VWS V14.01,2013-03-05 05:50:00,
2013-03-04 23:55:00,24.3,0.0,30.42,NE,43,9.8,11.6,0,0.00,,---,0.00,VWS V14.01,2013-03-05 05:55:00,